Time;durP1;ratioP1;P1;durP2;ratioP2;P2;SDS_P1;SDS_P2;PMS_P1;PMS_P2;Temp;Humidity;BMP_temperature;BMP_pressure;BME280_temperature;BME280_humidity;BME280_pressure;Samples;Min_cycle;Max_cycle;Signal;HPM_P1;HPM_P2
2021/07/25 00:02:27;;;;;;;31.58;25.13;;;;;;;18.77;80.35;100730.38;10457080;28;20060;-64
2021/07/25 00:07:31;;;;;;;38.95;29.67;;;;;;;18.69;80.70;100723.16;10456383;28;20045;-62
2021/07/25 00:12:33;;;;;;;33.70;27.15;;;;;;;18.80;80.62;100719.47;10456850;28;20102;-62
2021/07/25 00:17:35;;;;;;;39.17;32.20;;;;;;;18.61;81.84;100700.94;10456253;28;20580;-63
2021/07/25 00:22:38;;;;;;;39.63;30.75;;;;;;;18.66;82.22;100710.16;10456366;28;20404;-64
2021/07/25 00:27:41;;;;;;;40.78;30.90;;;;;;;18.54;82.50;100709.50;10455960;28;20045;-62
2021/07/25 00:32:43;;;;;;;28.33;23.75;;;;;;;18.55;82.15;100691.75;10456012;28;20061;-62
2021/07/25 00:37:52;;;;;;;37.08;29.80;;;;;;;18.64;81.85;100693.53;10455737;28;20045;-63
2021/07/25 00:42:54;;;;;;;39.25;31.20;;;;;;;18.45;82.94;100688.28;10454964;28;20088;-63
2021/07/25 00:47:57;;;;;;;37.95;30.35;;;;;;;18.44;82.78;100681.31;10438712;28;20045;-62
2021/07/25 00:52:59;;;;;;;35.45;26.75;;;;;;;18.54;82.55;100676.81;10455093;28;20049;-62
2021/07/25 00:58:01;;;;;;;35.97;29.65;;;;;;;18.34;83.13;100678.66;10437864;28;20450;-62
2021/07/25 01:03:09;;;;;;;29.83;23.98;;;;;;;18.67;80.33;100668.56;10455493;28;20048;-62
2021/07/25 01:08:17;;;;;;;41.20;30.85;;;;;;;18.53;82.39;100680.47;10455372;28;20045;-63
2021/07/25 01:13:25;;;;;;;31.52;24.42;;;;;;;18.64;80.00;100682.09;10454077;28;20049;-63
2021/07/25 01:18:28;;;;;;;38.97;32.47;;;;;;;18.46;82.17;100674.03;10454523;28;20049;-61
2021/07/25 01:23:30;;;;;;;41.35;31.35;;;;;;;18.48;83.11;100672.09;10462816;28;20048;-63
2021/07/25 01:28:34;;;;;;;44.92;34.40;;;;;;;18.20;84.21;100678.13;10462426;28;20090;-63
2021/07/25 01:33:37;;;;;;;35.83;30.75;;;;;;;18.49;81.26;100664.00;10460745;28;20060;-62
2021/07/25 01:38:40;;;;;;;35.38;27.05;;;;;;;18.24;83.90;100673.41;10460772;28;20072;-62
2021/07/25 01:43:45;;;;;;;46.42;35.42;;;;;;;18.05;84.72;100673.41;10461978;28;20075;-63
2021/07/25 01:48:48;;;;;;;47.60;36.55;;;;;;;17.96;84.36;100675.06;10462291;28;20053;-62
2021/07/25 01:53:50;;;;;;;35.67;27.88;;;;;;;18.24;81.77;100678.69;10460254;28;20504;-62
2021/07/25 01:58:52;;;;;;;36.60;29.10;;;;;;;17.95;83.54;100673.38;10460938;28;20041;-63
2021/07/25 02:03:55;;;;;;;30.70;24.25;;;;;;;18.11;80.33;100667.56;10461121;28;20428;-64
2021/07/25 02:08:57;;;;;;;32.60;27.67;;;;;;;17.57;83.87;100667.91;10459685;28;20047;-62
2021/07/25 02:13:59;;;;;;;28.20;21.05;;;;;;;17.76;81.85;100679.50;10461072;28;20045;-63
2021/07/25 02:19:02;;;;;;;30.08;21.23;;;;;;;17.86;81.77;100672.38;10460446;28;20084;-62
2021/07/25 02:24:04;;;;;;;26.27;21.27;;;;;;;17.71;82.19;100671.94;10460847;28;20048;-62
2021/07/25 02:29:07;;;;;;;18.95;16.30;;;;;;;17.94;80.27;100663.78;10459996;28;20068;-64
2021/07/25 02:34:09;;;;;;;23.80;17.15;;;;;;;17.74;81.64;100660.25;10459514;28;20049;-63
2021/07/25 02:39:13;;;;;;;20.98;18.00;;;;;;;17.86;80.26;100650.38;10458647;28;20409;-62
2021/07/25 02:44:15;;;;;;;22.20;19.08;;;;;;;17.75;81.19;100643.38;10459656;28;20057;-63
2021/07/25 02:49:17;;;;;;;26.27;20.77;;;;;;;17.76;81.71;100647.72;10459185;28;20055;-62
2021/07/25 02:54:20;;;;;;;22.42;19.42;;;;;;;17.63;82.74;100637.38;10458247;28;20045;-63
2021/07/25 02:59:22;;;;;;;19.98;16.10;;;;;;;17.88;80.86;100643.97;10459093;28;20045;-63
2021/07/25 03:04:24;;;;;;;20.23;17.45;;;;;;;17.88;81.30;100643.97;10459127;28;20053;-62
2021/07/25 03:09:27;;;;;;;23.38;19.58;;;;;;;17.70;82.20;100640.31;10458364;28;20049;-63
2021/07/25 03:14:29;;;;;;;25.15;18.65;;;;;;;17.75;81.08;100646.88;10458516;28;20048;-61
2021/07/25 03:19:32;;;;;;;19.00;15.82;;;;;;;17.72;81.29;100652.44;10457892;28;20390;-62
2021/07/25 03:24:34;;;;;;;23.20;18.90;;;;;;;17.67;80.69;100651.16;10457869;28;20508;-62
2021/07/25 03:29:37;;;;;;;26.30;17.67;;;;;;;17.69;80.75;100649.25;10456583;28;20045;-62
2021/07/25 03:34:39;;;;;;;29.70;22.58;;;;;;;17.38;82.71;100654.59;10457573;28;20061;-61
2021/07/25 03:39:43;;;;;;;25.60;20.35;;;;;;;17.74;81.13;100652.31;10457471;28;20049;-62
2021/07/25 03:44:46;;;;;;;23.77;17.63;;;;;;;17.75;80.02;100646.03;10456808;28;20056;-62
2021/07/25 03:49:48;;;;;;;25.42;20.48;;;;;;;17.44;81.28;100646.97;10456940;28;20485;-62
2021/07/25 03:54:51;;;;;;;25.10;20.00;;;;;;;17.52;80.39;100643.66;10455859;28;20052;-61
2021/07/25 03:59:53;;;;;;;26.30;19.17;;;;;;;17.45;79.89;100646.00;10455827;28;20051;-62
2021/07/25 04:04:55;;;;;;;22.80;17.10;;;;;;;17.35;81.13;100644.28;10456632;28;20499;-61
2021/07/25 04:09:58;;;;;;;17.02;15.20;;;;;;;17.63;79.16;100646.19;10456286;28;20041;-65
2021/07/25 04:15:02;;;;;;;17.58;13.88;;;;;;;17.73;79.18;100651.47;10456671;28;20049;-62
2021/07/25 04:20:07;;;;;;;22.02;17.05;;;;;;;17.42;81.04;100642.78;10456409;28;20045;-62
2021/07/25 04:25:10;;;;;;;20.35;15.32;;;;;;;17.44;80.83;100641.66;10456723;28;20053;-64
2021/07/25 04:30:13;;;;;;;15.00;12.57;;;;;;;17.79;77.76;100650.91;10454874;28;20485;-63
2021/07/25 04:35:17;;;;;;;13.27;11.25;;;;;;;17.70;77.66;100645.59;10454735;28;20424;-61
2021/07/25 04:40:20;;;;;;;16.60;11.82;;;;;;;17.79;77.89;100650.09;10455077;28;20057;-62
2021/07/25 04:45:43;;;;;;;11.10;9.57;;;;;;;17.86;77.93;100661.78;10454567;28;20481;-62
2021/07/25 04:50:53;;;;;;;11.00;8.13;;;;;;;17.81;77.88;100661.38;10455933;28;20049;-62
2021/07/25 04:56:01;;;;;;;10.23;7.70;;;;;;;17.63;79.23;100658.56;10459157;28;20045;-62
2021/07/25 05:01:03;;;;;;;12.63;7.85;;;;;;;17.87;78.28;100662.66;10463420;28;20049;-64
2021/07/25 05:06:10;;;;;;;8.60;7.10;;;;;;;18.00;77.26;100664.06;10462230;28;20056;-62
2021/07/25 05:11:15;;;;;;;10.55;7.20;;;;;;;17.90;77.75;100667.69;10462522;28;20059;-62
2021/07/25 05:16:29;;;;;;;9.30;7.45;;;;;;;17.98;77.55;100668.66;10462988;28;20503;-63
2021/07/25 05:21:37;;;;;;;8.50;6.95;;;;;;;18.14;76.15;100676.03;10462061;28;20053;-63
2021/07/25 05:26:41;;;;;;;10.57;7.22;;;;;;;18.15;78.06;100683.00;10462404;28;20049;-63
2021/07/25 05:31:43;;;;;;;8.90;7.55;;;;;;;18.27;77.52;100688.16;10461328;28;20079;-62
2021/07/25 05:36:46;;;;;;;10.88;8.05;;;;;;;18.10;78.72;100681.75;10462173;28;20055;-62
2021/07/25 05:41:48;;;;;;;10.88;7.30;;;;;;;18.22;79.03;100682.44;10462705;28;20056;-63
2021/07/25 05:46:50;;;;;;;13.10;7.25;;;;;;;18.52;77.79;100679.59;10461464;28;20493;-61
2021/07/25 05:51:53;;;;;;;8.27;6.97;;;;;;;18.56;78.43;100680.19;10461419;28;20041;-62
2021/07/25 05:56:55;;;;;;;8.32;6.47;;;;;;;18.62;77.54;100692.03;10461895;28;20060;-62
2021/07/25 06:02:01;;;;;;;7.78;6.68;;;;;;;18.59;78.08;100682.53;10461327;28;20060;-62
2021/07/25 06:07:04;;;;;;;6.45;5.65;;;;;;;18.92;77.69;100683.88;10461114;28;20049;-62
2021/07/25 06:12:06;;;;;;;11.43;6.45;;;;;;;18.89;77.29;100680.66;10460964;28;20057;-62
2021/07/25 06:17:08;;;;;;;7.25;6.20;;;;;;;18.48;78.46;100678.25;10460215;28;20052;-61
2021/07/25 06:22:11;;;;;;;8.75;5.93;;;;;;;18.78;78.40;100688.75;10460948;28;20048;-63
2021/07/25 06:27:14;;;;;;;8.60;6.45;;;;;;;18.89;77.05;100681.50;10458991;28;20045;-63
2021/07/25 06:32:16;;;;;;;10.60;7.38;;;;;;;18.85;77.96;100681.94;10460211;28;20060;-63
2021/07/25 06:37:18;;;;;;;9.70;7.63;;;;;;;18.88;76.77;100687.81;10459946;28;20068;-62
2021/07/25 06:42:21;;;;;;;7.70;6.18;;;;;;;18.94;76.10;100689.03;10460180;28;20049;-62
2021/07/25 06:47:23;;;;;;;8.63;6.28;;;;;;;19.30;74.91;100679.38;10459372;28;20041;-62
2021/07/25 06:52:26;;;;;;;9.82;5.00;;;;;;;19.79;73.70;100691.56;10459814;28;20053;-62
2021/07/25 06:57:29;;;;;;;6.50;5.45;;;;;;;19.83;74.79;100684.94;10459207;28;20048;-62
2021/07/25 07:02:58;;;;;;;7.55;5.78;;;;;;;19.92;73.70;100684.06;10458823;28;20386;-62
2021/07/25 07:08:04;;;;;;;11.10;6.55;;;;;;;19.93;72.71;100687.53;10458437;28;20536;-62
2021/07/25 07:13:08;;;;;;;7.50;6.70;;;;;;;19.80;73.48;100685.25;10457230;28;20057;-62
2021/07/25 07:18:11;;;;;;;8.05;5.75;;;;;;;20.30;71.47;100690.00;10457758;28;20049;-62
2021/07/25 07:23:16;;;;;;;7.80;7.00;;;;;;;20.53;71.93;100681.53;10458043;28;20401;-61
2021/07/25 07:28:19;;;;;;;7.88;5.93;;;;;;;21.29;70.83;100691.44;10457917;28;20049;-61
2021/07/25 07:33:22;;;;;;;9.02;6.40;;;;;;;21.39;69.67;100688.66;10458199;28;20061;-61
2021/07/25 07:38:25;;;;;;;8.73;6.93;;;;;;;21.90;68.07;100685.97;10457388;28;20493;-64
2021/07/25 07:43:27;;;;;;;11.45;8.70;;;;;;;21.80;67.59;100696.78;10457349;28;20060;-62
2021/07/25 07:48:29;;;;;;;8.90;7.97;;;;;;;22.01;67.01;100695.50;10457008;28;20444;-61
2021/07/25 07:53:33;;;;;;;12.63;8.30;;;;;;;22.27;65.90;100701.50;10456890;28;20478;-61
2021/07/25 07:58:35;;;;;;;10.07;9.07;;;;;;;22.47;65.80;100697.69;10456824;28;20508;-62
2021/07/25 08:03:38;;;;;;;7.82;7.05;;;;;;;23.29;63.65;100692.16;10455932;28;20358;-62
2021/07/25 08:08:40;;;;;;;8.73;6.97;;;;;;;22.97;65.28;100709.91;10456559;28;20047;-62
2021/07/25 08:13:45;;;;;;;10.57;5.85;;;;;;;24.09;59.96;100704.38;10456126;28;20049;-62
2021/07/25 08:18:47;;;;;;;7.35;5.82;;;;;;;24.36;59.03;100700.31;10456298;28;20103;-61
2021/07/25 08:23:50;;;;;;;7.95;6.13;;;;;;;24.70;58.44;100704.38;10455191;28;20045;-62
2021/07/25 08:28:52;;;;;;;6.68;5.45;;;;;;;25.22;58.08;100713.31;10458981;28;20041;-62
2021/07/25 08:33:54;;;;;;;10.02;6.47;;;;;;;25.27;56.58;100718.13;10464597;28;20052;-62
2021/07/25 08:38:57;;;;;;;9.40;6.95;;;;;;;24.85;58.57;100717.78;10464194;28;20401;-62
2021/07/25 08:44:27;;;;;;;8.05;7.25;;;;;;;24.52;57.85;100710.03;10464544;28;20052;-62
2021/07/25 08:49:41;;;;;;;7.32;5.63;;;;;;;23.50;59.76;100708.41;10463998;28;20519;-63
2021/07/25 08:54:44;;;;;;;6.78;6.13;;;;;;;25.61;55.74;100712.16;10462937;28;20052;-61
2021/07/25 08:59:48;;;;;;;8.98;6.43;;;;;;;25.76;55.60;100718.31;10463624;28;20421;-62
2021/07/25 09:04:53;;;;;;;8.63;7.68;;;;;;;25.16;57.00;100717.56;10463361;28;20056;-62
2021/07/25 09:09:58;;;;;;;10.77;7.20;;;;;;;26.50;54.31;100716.34;10463892;28;20048;-62
2021/07/25 09:15:04;;;;;;;10.20;7.78;;;;;;;26.15;55.23;100716.25;10463071;28;20396;-62
2021/07/25 09:20:16;;;;;;;6.45;5.85;;;;;;;27.34;53.33;100710.06;10461687;28;20075;-63
2021/07/25 09:25:21;;;;;;;6.72;5.00;;;;;;;25.95;54.34;100718.75;10462510;28;20052;-63
2021/07/25 09:30:30;;;;;;;10.30;6.45;;;;;;;25.92;54.42;100709.22;10462562;28;20049;-61
2021/07/25 09:35:37;;;;;;;7.75;6.35;;;;;;;27.83;50.14;100718.06;10462537;28;20052;-61
2021/07/25 09:40:43;;;;;;;6.53;5.80;;;;;;;27.18;52.90;100708.50;10460908;28;20089;-63
2021/07/25 09:45:54;;;;;;;9.57;7.40;;;;;;;25.67;54.93;100710.56;10462400;28;20056;-61
2021/07/25 09:50:58;;;;;;;11.30;7.03;;;;;;;25.19;57.06;100709.16;10461769;28;20053;-63
2021/07/25 09:56:20;;;;;;;6.43;4.85;;;;;;;26.52;55.71;100714.28;10461316;28;20409;-63
2021/07/25 10:01:37;;;;;;;11.90;7.03;;;;;;;25.17;57.45;100715.75;10460300;28;20095;-61
2021/07/25 10:06:41;;;;;;;9.50;7.15;;;;;;;25.84;55.83;100706.66;10459728;28;20417;-61
2021/07/25 10:11:47;;;;;;;7.57;6.32;;;;;;;27.40;53.13;100708.41;10461174;28;20084;-62
2021/07/25 10:16:56;;;;;;;7.28;5.15;;;;;;;28.83;48.43;100716.25;10461310;28;20041;-62
2021/07/25 10:21:59;;;;;;;6.43;4.15;;;;;;;28.76;40.15;100703.84;10460854;28;20049;-61
2021/07/25 10:27:02;;;;;;;9.32;4.20;;;;;;;28.53;48.20;100703.22;10460128;28;20051;-62
2021/07/25 10:32:07;;;;;;;8.18;4.60;;;;;;;29.17;46.05;100703.53;10459668;28;20056;-62
2021/07/25 10:37:10;;;;;;;5.50;4.07;;;;;;;27.93;46.52;100705.91;10460005;28;20120;-63
2021/07/25 10:42:17;;;;;;;6.25;3.67;;;;;;;29.85;44.60;100701.34;10442724;28;20045;-62
2021/07/25 10:47:32;;;;;;;3.95;3.30;;;;;;;29.15;46.65;100704.75;10459373;28;20044;-62
2021/07/25 10:52:55;;;;;;;4.78;3.40;;;;;;;26.98;50.31;100703.06;10458522;28;20052;-64
2021/07/25 10:58:07;;;;;;;4.65;3.65;;;;;;;28.17;48.44;100700.94;10458767;28;20384;-63
2021/07/25 11:03:12;;;;;;;3.47;2.92;;;;;;;29.56;43.88;100698.16;10459370;28;20124;-63
2021/07/25 11:08:51;;;;;;;4.65;3.13;;;;;;;29.71;45.36;100695.19;10457237;28;20052;-64
2021/07/25 11:13:54;;;;;;;7.53;3.60;;;;;;;28.43;47.85;100696.59;10458478;28;20053;-62
2021/07/25 11:18:58;;;;;;;8.20;3.42;;;;;;;26.88;50.50;100695.34;10458805;28;20056;-63
2021/07/25 11:24:10;;;;;;;4.32;3.08;;;;;;;28.20;49.69;100700.53;10458850;28;20111;-63
2021/07/25 11:29:19;;;;;;;3.80;3.05;;;;;;;30.56;44.31;100687.47;10456699;28;20071;-63
2021/07/25 11:34:28;;;;;;;8.75;3.05;;;;;;;30.32;45.57;100691.00;10457920;28;20056;-63
2021/07/25 11:39:32;;;;;;;4.18;3.50;;;;;;;30.20;44.46;100688.19;10456337;28;20045;-64
2021/07/25 11:44:34;;;;;;;3.28;3.00;;;;;;;27.95;45.79;100690.38;10457468;28;20049;-63
2021/07/25 11:49:40;;;;;;;3.17;2.50;;;;;;;26.84;50.55;100691.38;10456899;28;20120;-61
2021/07/25 11:54:43;;;;;;;9.32;3.88;;;;;;;27.84;48.33;100687.44;10456793;28;20052;-63
2021/07/25 11:59:49;;;;;;;5.00;3.65;;;;;;;28.59;43.47;100688.09;10457143;28;20044;-62
2021/07/25 12:04:52;;;;;;;3.45;2.50;;;;;;;27.54;52.19;100691.31;10456555;28;20059;-61
2021/07/25 12:09:56;;;;;;;6.25;2.92;;;;;;;27.51;49.12;100691.72;10456799;28;20045;-62
2021/07/25 12:15:02;;;;;;;5.72;3.00;;;;;;;26.87;52.06;100693.69;10456479;28;20508;-63
2021/07/25 12:20:13;;;;;;;3.70;2.85;;;;;;;29.86;48.00;100676.84;10456350;28;20374;-61
2021/07/25 12:25:16;;;;;;;3.80;2.58;;;;;;;30.35;39.27;100683.28;10456363;28;20053;-63
2021/07/25 12:30:20;;;;;;;2.80;2.50;;;;;;;30.46;41.99;100689.03;10456781;28;20049;-62
2021/07/25 12:35:23;;;;;;;3.10;2.20;;;;;;;31.07;40.13;100688.19;10455560;28;20412;-62
2021/07/25 12:40:33;;;;;;;3.20;1.73;;;;;;;29.14;40.41;100682.38;10456390;28;20087;-62
2021/07/25 12:45:40;;;;;;;6.05;2.30;;;;;;;31.76;37.21;100668.97;10455996;28;20132;-63
2021/07/25 12:50:49;;;;;;;3.72;1.70;;;;;;;32.14;38.11;100675.06;10455530;28;20041;-62
2021/07/25 12:55:52;;;;;;;4.87;2.17;;;;;;;30.25;38.73;100674.03;10456098;28;20052;-61
2021/07/25 13:06:01;;;;;;;2.13;1.70;;;;;;;31.29;37.77;100669.59;10455671;28;20045;-62
2021/07/25 13:11:04;;;;;;;2.10;1.95;;;;;;;28.45;43.82;100662.22;10454913;28;20072;-63
2021/07/25 13:16:06;;;;;;;1.88;1.67;;;;;;;28.25;42.92;100673.81;10458564;28;20052;-65
2021/07/25 13:21:09;;;;;;;3.83;1.80;;;;;;;28.40;41.30;100678.19;10462058;28;20106;-63
2021/07/25 13:26:12;;;;;;;3.78;1.85;;;;;;;28.41;43.47;100671.75;10462682;28;20051;-63
2021/07/25 13:31:14;;;;;;;4.22;1.60;;;;;;;27.83;45.54;100670.47;10461673;28;20049;-63
2021/07/25 13:36:18;;;;;;;3.17;1.73;;;;;;;28.75;45.43;100680.63;10461260;28;20086;-63
2021/07/25 13:41:20;;;;;;;2.85;2.10;;;;;;;28.98;43.49;100666.66;10461354;28;20045;-64
2021/07/25 13:46:24;;;;;;;2.78;1.73;;;;;;;29.44;43.82;100687.25;10461660;28;20053;-65
2021/07/25 13:51:27;;;;;;;3.25;1.58;;;;;;;30.46;39.74;100683.63;10462248;28;20094;-63
2021/07/25 13:56:29;;;;;;;7.07;2.17;;;;;;;27.91;45.72;100688.28;10460765;28;20049;-62
2021/07/25 14:01:32;;;;;;;3.70;1.67;;;;;;;27.35;47.34;100684.84;10460415;28;20052;-64
2021/07/25 14:06:34;;;;;;;4.38;1.58;;;;;;;28.26;46.47;100688.09;10461234;28;20121;-63
2021/07/25 14:11:38;;;;;;;4.20;1.52;;;;;;;27.78;45.17;100681.84;10461038;28;20079;-63
2021/07/25 14:16:40;;;;;;;2.55;1.40;;;;;;;29.95;43.42;100672.81;10460930;28;20048;-64
2021/07/25 14:21:44;;;;;;;2.63;1.25;;;;;;;30.86;40.29;100678.63;10459435;28;20053;-64
2021/07/25 14:26:46;;;;;;;5.28;2.33;;;;;;;30.25;41.13;100668.66;10460407;28;20068;-64
2021/07/25 14:31:48;;;;;;;4.70;1.52;;;;;;;30.27;38.38;100677.34;10460292;28;20049;-64
2021/07/25 14:36:51;;;;;;;2.13;1.60;;;;;;;30.40;39.89;100662.94;10459932;28;20484;-63
2021/07/25 14:41:53;;;;;;;5.07;1.85;;;;;;;29.50;39.85;100661.28;10459603;28;20503;-63
2021/07/25 14:46:55;;;;;;;1.40;1.30;;;;;;;31.07;38.99;100669.28;10459344;28;20390;-63
2021/07/25 14:51:57;;;;;;;1.52;1.38;;;;;;;30.75;38.58;100668.59;10458698;28;20147;-65
2021/07/25 14:57:00;;;;;;;1.75;1.50;;;;;;;29.41;38.97;100671.50;10459067;28;20397;-63
2021/07/25 15:02:03;;;;;;;3.17;1.65;;;;;;;29.20;40.35;100665.38;10458867;28;20503;-64
2021/07/25 15:07:08;;;;;;;3.28;1.80;;;;;;;30.15;40.74;100663.75;10459045;28;20072;-65
2021/07/25 15:12:10;;;;;;;4.90;1.50;;;;;;;29.52;37.74;100665.41;10458647;28;20045;-64
2021/07/25 15:17:12;;;;;;;2.83;1.17;;;;;;;31.14;37.32;100662.97;10458256;28;20045;-64
2021/07/25 15:22:15;;;;;;;3.92;1.50;;;;;;;30.29;39.27;100664.44;10458367;28;20063;-64
2021/07/25 15:27:17;;;;;;;1.75;1.35;;;;;;;30.75;37.00;100652.38;10456636;28;20056;-64
2021/07/25 15:32:20;;;;;;;2.15;1.42;;;;;;;29.57;37.44;100651.25;10457708;28;20098;-63
2021/07/25 15:37:22;;;;;;;2.33;1.23;;;;;;;29.46;37.28;100653.59;10456768;28;20393;-64
2021/07/25 15:42:25;;;;;;;2.30;1.15;;;;;;;31.07;33.48;100650.34;10457652;28;20080;-63
2021/07/25 15:47:28;;;;;;;1.30;1.17;;;;;;;29.61;35.18;100650.63;10457129;28;20484;-63
2021/07/25 15:52:30;;;;;;;3.50;1.08;;;;;;;29.81;36.88;100652.38;10457422;28;20393;-65
2021/07/25 15:57:35;;;;;;;1.73;1.15;;;;;;;29.09;34.43;100657.91;10457347;28;20056;-63
2021/07/25 16:02:37;;;;;;;0.93;0.77;;;;;;;30.22;34.11;100658.28;10456862;28;20405;-64
2021/07/25 16:07:40;;;;;;;1.90;0.98;;;;;;;28.27;37.80;100654.78;10456389;28;20554;-63
2021/07/25 16:12:42;;;;;;;1.00;0.85;;;;;;;28.95;35.76;100659.84;10456711;28;20060;-63
2021/07/25 16:17:49;;;;;;;2.15;0.90;;;;;;;29.08;35.88;100658.94;10457029;28;20127;-64
2021/07/25 16:22:52;;;;;;;2.60;0.80;;;;;;;28.96;37.55;100657.97;10456453;28;20053;-65
2021/07/25 16:27:54;;;;;;;1.48;0.80;;;;;;;28.51;36.52;100664.91;10456026;28;20053;-63
2021/07/25 16:32:56;;;;;;;1.25;0.95;;;;;;;29.13;36.60;100655.63;10456533;28;20068;-64
2021/07/25 16:37:59;;;;;;;1.42;0.95;;;;;;;28.78;37.62;100650.56;10456571;28;20057;-63
2021/07/25 16:43:03;;;;;;;1.20;1.02;;;;;;;28.37;38.08;100646.28;10455789;28;20060;-64
2021/07/25 16:48:06;;;;;;;1.77;1.20;;;;;;;28.32;39.59;100636.97;10455687;28;20512;-63
2021/07/25 16:53:08;;;;;;;1.58;0.80;;;;;;;27.68;38.62;100632.19;10462531;28;20049;-63
2021/07/25 16:58:12;;;;;;;5.90;0.90;;;;;;;28.17;38.83;100633.66;10462442;28;20060;-62
2021/07/25 17:03:14;;;;;;;2.55;1.27;;;;;;;27.55;40.33;100638.34;10464010;28;20120;-65
2021/07/25 17:08:17;;;;;;;2.88;1.25;;;;;;;27.58;39.59;100640.66;10463299;28;20516;-63
2021/07/25 17:13:19;;;;;;;0.77;0.77;;;;;;;27.50;41.03;100660.47;10463636;28;20133;-63
2021/07/25 17:18:22;;;;;;;1.92;1.02;;;;;;;27.03;44.30;100673.72;10463289;28;20061;-63
2021/07/25 17:23:24;;;;;;;2.08;1.10;;;;;;;26.58;45.71;100691.19;10462889;28;20493;-63
2021/07/25 17:28:26;;;;;;;2.25;1.10;;;;;;;26.44;48.35;100691.09;10462505;28;20508;-64
2021/07/25 17:33:28;;;;;;;1.73;1.13;;;;;;;26.95;45.70;100681.09;10462802;28;20061;-64
2021/07/25 17:38:31;;;;;;;2.60;1.27;;;;;;;26.83;45.10;100684.38;10462306;28;20041;-64
2021/07/25 17:43:33;;;;;;;3.22;1.52;;;;;;;26.44;45.26;100704.50;10462564;28;20056;-64
2021/07/25 17:48:35;;;;;;;2.28;1.20;;;;;;;24.99;52.09;100748.25;10461911;28;20041;-63
2021/07/25 17:53:38;;;;;;;4.45;1.38;;;;;;;23.14;53.33;100732.91;10460450;28;20053;-62
2021/07/25 17:58:40;;;;;;;2.47;0.95;;;;;;;23.12;57.37;100734.94;10461565;28;20099;-65
2021/07/25 18:03:42;;;;;;;16.10;1.95;;;;;;;20.59;68.85;100737.63;10461252;28;20048;-62
2021/07/25 18:08:45;;;;;;;6.53;2.08;;;;;;;19.94;75.48;100747.63;10460954;28;20404;-61
2021/07/25 18:13:47;;;;;;;4.63;1.75;;;;;;;19.38;75.46;100757.44;10460826;28;20041;-63
2021/07/25 18:18:49;;;;;;;5.50;2.53;;;;;;;19.98;78.40;100746.38;10460556;28;20552;-63
2021/07/25 18:23:53;;;;;;;5.20;1.90;;;;;;;19.35;78.53;100739.13;10460699;28;20056;-61
2021/07/25 18:28:57;;;;;;;2.45;1.60;;;;;;;19.05;77.21;100741.91;10460576;28;20052;-61
2021/07/25 18:34:00;;;;;;;5.70;1.70;;;;;;;19.24;82.43;100742.81;10460559;28;20069;-62
2021/07/25 18:39:02;;;;;;;3.15;1.33;;;;;;;19.77;78.88;100746.63;10459927;28;20044;-63
2021/07/25 18:44:08;;;;;;;4.05;1.55;;;;;;;19.64;78.83;100745.16;10459767;28;20045;-65
2021/07/25 18:49:11;;;;;;;3.13;1.23;;;;;;;19.87;77.95;100755.41;10459870;28;20098;-65
2021/07/25 18:54:13;;;;;;;3.00;1.25;;;;;;;19.70;81.09;100764.94;10459709;28;20049;-63
2021/07/25 18:59:20;;;;;;;2.95;1.90;;;;;;;19.57;81.58;100756.50;10459647;28;20053;-64
2021/07/25 19:04:40;;;;;;;3.50;1.88;;;;;;;19.14;82.80;100772.06;10458976;28;20411;-64
2021/07/25 19:10:04;;;;;;;2.58;1.73;;;;;;;19.38;81.99;100774.19;10458737;28;20059;-63
2021/07/25 19:15:29;;;;;;;2.70;2.00;;;;;;;19.38;82.64;100781.31;10457697;28;20048;-64
2021/07/25 19:20:51;;;;;;;4.38;1.75;;;;;;;19.14;81.85;100782.66;10458387;28;20436;-62
2021/07/25 19:25:53;;;;;;;2.75;1.60;;;;;;;19.21;82.90;100777.63;10458033;28;20501;-61
2021/07/25 19:30:56;;;;;;;6.95;2.20;;;;;;;18.88;84.33;100788.59;10456539;28;20051;-63
2021/07/25 19:35:58;;;;;;;3.22;1.83;;;;;;;18.90;83.35;100786.63;10457535;28;20065;-64
2021/07/25 19:41:05;;;;;;;5.45;2.13;;;;;;;18.87;83.27;100791.38;10457679;28;20060;-62
2021/07/25 19:46:08;;;;;;;1.90;1.80;;;;;;;18.81;83.08;100807.81;10457493;28;20135;-63
2021/07/25 19:51:11;;;;;;;2.28;1.83;;;;;;;18.79;83.39;100809.78;10456190;28;20053;-63
2021/07/25 19:56:13;;;;;;;5.68;1.77;;;;;;;18.80;83.53;100807.00;10456852;28;20045;-63
2021/07/25 20:01:16;;;;;;;2.47;1.67;;;;;;;18.62;82.86;100808.69;10457054;28;20049;-62
2021/07/25 20:06:18;;;;;;;4.55;2.25;;;;;;;18.58;83.97;100816.09;10456138;28;20052;-62
2021/07/25 20:11:20;;;;;;;3.55;1.85;;;;;;;18.37;84.22;100814.41;10456988;28;20049;-63
2021/07/25 20:16:23;;;;;;;2.80;2.33;;;;;;;18.48;83.34;100817.91;10456557;28;20049;-62
2021/07/25 20:21:27;;;;;;;3.33;2.25;;;;;;;18.33;83.42;100825.44;10456406;28;20562;-63
2021/07/25 20:26:29;;;;;;;3.45;2.05;;;;;;;18.23;83.65;100821.94;10465907;28;20140;-62
2021/07/25 20:31:31;;;;;;;2.53;2.20;;;;;;;18.13;84.27;100825.38;10470445;28;20048;-61
2021/07/25 20:36:34;;;;;;;4.35;2.67;;;;;;;17.97;84.46;100830.34;10468407;28;20497;-62
2021/07/25 20:41:38;;;;;;;2.50;2.30;;;;;;;18.08;84.05;100829.44;10471031;28;20075;-63
2021/07/25 20:46:41;;;;;;;3.40;3.10;;;;;;;18.01;84.72;100843.19;10470146;28;20048;-63
2021/07/25 20:51:44;;;;;;;6.40;3.05;;;;;;;18.12;84.54;100841.41;10470395;28;20084;-63
2021/07/25 20:56:47;;;;;;;4.95;3.03;;;;;;;17.83;85.10;100845.63;10468387;28;20052;-64
2021/07/25 21:01:49;;;;;;;5.40;2.92;;;;;;;17.92;84.68;100846.69;10469813;28;20045;-63
2021/07/25 21:06:51;;;;;;;3.85;3.38;;;;;;;17.82;85.00;100851.06;10469352;28;20402;-63
2021/07/25 21:11:54;;;;;;;4.47;3.47;;;;;;;17.77;85.35;100853.25;10469377;28;20500;-62
2021/07/25 21:16:56;;;;;;;3.65;3.35;;;;;;;17.82;84.92;100848.44;10468122;28;20406;-63
2021/07/25 21:21:59;;;;;;;4.90;4.00;;;;;;;17.95;85.10;100851.69;10469383;28;20057;-63
2021/07/25 21:27:01;;;;;;;3.67;3.35;;;;;;;18.03;85.03;100845.72;10469205;28;20052;-62
2021/07/25 21:32:04;;;;;;;6.43;3.67;;;;;;;17.93;85.10;100845.69;10467498;28;20477;-62
2021/07/25 21:37:07;;;;;;;5.07;3.30;;;;;;;18.00;85.14;100853.94;10464574;28;20045;-63
2021/07/25 21:42:09;;;;;;;4.07;3.55;;;;;;;18.06;85.16;100849.94;10462441;28;20045;-63
2021/07/25 21:47:12;;;;;;;9.32;3.25;;;;;;;18.04;84.56;100846.56;10462118;28;20047;-63
2021/07/25 21:52:14;;;;;;;4.55;4.10;;;;;;;17.93;85.34;100844.84;10461949;28;20052;-62
2021/07/25 21:57:17;;;;;;;7.25;4.20;;;;;;;18.00;85.26;100845.97;10462032;28;20045;-61
2021/07/25 22:02:42;;;;;;;6.03;3.97;;;;;;;17.99;85.51;100846.97;10461647;28;20049;-62
2021/07/25 22:07:45;;;;;;;4.38;3.90;;;;;;;18.06;85.30;100845.44;10461094;28;20481;-62
2021/07/25 22:12:48;;;;;;;7.50;4.15;;;;;;;18.12;85.63;100844.06;10460061;28;20063;-63
2021/07/25 22:17:50;;;;;;;7.45;5.35;;;;;;;17.92;84.77;100837.88;10460538;28;20041;-63
2021/07/25 22:22:52;;;;;;;5.22;4.72;;;;;;;18.01;85.24;100847.69;10460957;28;20055;-62
2021/07/25 22:27:55;;;;;;;8.60;4.57;;;;;;;17.97;86.23;100843.59;10459918;28;20041;-62
2021/07/25 22:32:57;;;;;;;7.20;4.47;;;;;;;18.02;85.49;100854.63;10443315;28;20049;-63
2021/07/25 22:38:03;;;;;;;8.95;6.45;;;;;;;18.05;85.90;100846.41;10458997;28;20052;-62
2021/07/25 22:43:05;;;;;;;10.48;7.93;;;;;;;17.78;86.71;100850.47;10459863;28;20405;-61
2021/07/25 22:48:11;;;;;;;14.20;5.72;;;;;;;17.80;87.07;100851.22;10458539;28;20049;-62
2021/07/25 22:53:15;;;;;;;8.63;5.90;;;;;;;17.99;85.97;100847.81;10459117;28;20515;-63
2021/07/25 22:58:17;;;;;;;8.65;5.93;;;;;;;17.95;85.95;100848.19;10458115;28;20045;-62
2021/07/25 23:03:19;;;;;;;6.95;6.25;;;;;;;18.15;85.47;100843.78;10459603;28;20056;-62
2021/07/25 23:08:22;;;;;;;8.02;7.15;;;;;;;17.87;86.29;100840.09;10458876;28;20099;-62
2021/07/25 23:13:24;;;;;;;11.32;7.55;;;;;;;17.74;86.37;100843.78;10457624;28;20056;-62
2021/07/25 23:18:27;;;;;;;9.73;6.43;;;;;;;17.78;86.12;100839.06;10458580;28;20041;-63